Wednesday, August 15, 2018, 11:00 PM CDT
Back to Local

KICT, Wichita Mid-continent Airport

Location: Wichita, KS, United States Lat: 37.65
Local Time: 11:00 PM CDT ( 4:00 GMT) Lon: -97.433
Time Zone: US/Central Elev: 1332 ft

Show me the last for .
Show Decoded

2018-08-15 21:53 METAR KICT 160253Z 00000KT 10SM CLR 25/21 A2995 RMK AO2 SLP127 T02500206 53015 $
                 =
2018-08-15 20:53 METAR KICT 160153Z 21003KT 10SM FEW220 26/21 A2993 RMK AO2 SLP120 T02560206 $ =
2018-08-15 19:53 METAR KICT 160053Z 00000KT 10SM FEW040 28/20 A2990 RMK AO2 SLP111 T02780200 $ =
2018-08-15 18:53 METAR KICT 152353Z 33004KT 10SM FEW045 FEW220 29/19 A2990 RMK AO2 SLP111
                 T02890194 10300 20267 56006 $ =
2018-08-15 17:53 METAR KICT 152253Z 29007KT 10SM FEW043 FEW180 29/19 A2990 RMK AO2 SLP111
                 T02940194 =
2018-08-15 16:53 METAR KICT 152153Z 30006KT 10SM SCT050 SCT150 SCT220 29/19 A2991 RMK AO2 SLP114
                 T02940194 =
2018-08-15 15:53 METAR KICT 152053Z VRB03KT 10SM SCT040 29/19 A2992 RMK AO2 SLP117 T02890194
                 58006 =
2018-08-15 14:53 METAR KICT 151953Z VRB06KT 10SM SCT036 BKN044 29/19 A2993 RMK AO2 SLP122
                 T02890194 =
2018-08-15 13:53 METAR KICT 151853Z 35010KT 10SM BKN039 BKN050 28/19 A2994 RMK AO2 SLP124
                 T02780194 =
2018-08-15 12:53 METAR KICT 151753Z 35010KT 10SM FEW026 BKN033 OVC045 27/19 A2994 RMK AO2 SLP125
                 6//// T02670194 10278 20217 58001 PNO $ =
2018-08-15 12:00 METAR KICT 151700Z 01009KT 10SM SCT026 BKN035 OVC045 26/20 A2995 RMK AO2
                 T02610200 =
2018-08-15 11:53 METAR KICT 151653Z 35011KT 10SM BKN026 BKN045 26/19 A2995 RMK AO2 SLP128
                 T02610194 =
2018-08-15 11:41 METAR KICT 151641Z 35010KT 10SM BKN026 BKN045 26/20 A2995 RMK AO2 T02610200 =
2018-08-15 10:53 METAR KICT 151553Z 35012KT 10SM FEW025 SCT032 BKN043 26/21 A2994 RMK AO2 SLP126
                 T02610206 =
2018-08-15 10:50 METAR KICT 151550Z 35010KT 10SM FEW025 SCT032 BKN043 26/20 A2994 RMK AO2 =
2018-08-15 09:53 METAR KICT 151453Z 34011KT 10SM SCT011 BKN020 OVC050 24/22 A2995 RMK AO2 SLP128
                 T02390217 51015 =
2018-08-15 08:53 METAR KICT 151353Z 33009KT 10SM OVC007 22/21 A2994 RMK AO2 SLP127 T02220211 =
2018-08-15 07:53 METAR KICT 151253Z 34012KT 9SM OVC005 22/21 A2992 RMK AO2 SLP120 T02170211 =
2018-08-15 06:53 METAR KICT 151153Z 35008KT 9SM OVC005 22/21 A2990 RMK AO2 SLP112 70097 T02170211
                 10222 20211 55002 $ =
2018-08-15 06:17 METAR KICT 151117Z 35009KT 10SM BKN006 OVC060 22/21 A2989 RMK AO2 T02170211 $ =
2018-08-15 06:04 METAR KICT 151104Z 34008KT 10SM SCT006 OVC060 22/21 A2989 RMK AO2 T02170211 $ =
2018-08-15 05:53 METAR KICT 151053Z 34009KT 10SM FEW010 BKN060 OVC130 22/21 A2988 RMK AO2 SLP108
                 T02170211 $ =
2018-08-15 04:53 METAR KICT 150953Z 32008KT 10SM BKN065 BKN120 BKN200 22/21 A2989 RMK AO2 SLP108
                 T02170211 $ =
2018-08-15 03:53 METAR KICT 150853Z 26005KT 10SM FEW025 BKN065 OVC100 22/22 A2991 RMK AO2 SLP113
                 T02220222 53004 $ =
2018-08-15 02:53 METAR KICT 150753Z 26008KT 10SM SCT022 BKN041 BKN055 BKN200 22/22 A2990 RMK AO2
                 SLP110 T02220217 =
2018-08-15 01:53 METAR KICT 150653Z 22007KT 9SM BKN043 BKN220 22/22 A2989 RMK AO2 SLP108
                 T02220217 =
2018-08-15 00:53 METAR KICT 150553Z 16006KT 10SM FEW040 FEW150 SCT220 22/21 A2989 RMK AO2 SLP108
                 CB MOVD E T02170211 10244 20211 402780211 53005 =
2018-08-14 23:53 METAR KICT 150453Z 26006KT 10SM FEW011 SCT120 SCT200 22/21 A2988 RMK AO2 SLP106
                 OCNL LTGICCC DSNT E-SE CB DSNT E-SE MOV E T02170211 =

Support USWX by starting your Amazon purchase here.